Swift Arrow — WAFK — position and weather

sailwx.info

Track history (hours):
 
Tides and Currents Weather Stations Pressure Air Temp Water Temp Dewpoint Dewpoint Depression Visibility Wind Speed Wind Dir Waves Ship Positions

Swift Arrow

Owner: ARROW LAUNCH SERVICE INC, Port Angeles, WA. More information available from US FCC via Universal Licensing System and Coast Guard Vessel Documentation Center.

Last reported at 2015-Jun-27 13:26 UTC. Time now 2015-Jul-02 18:14 UTC.
Position N 47°36' W 122°21'.

Type: Port tender. MMSI: 369021000.

Date/timePositionNaut miles runAvg speedWind from/ knotsBaromVisibWave heightAir tempDewpointWater temp
2015-Jun-27 13:26N 47°36' W 122°21'1 0.9
2015-Jun-27 12:30N 47°36' W 122°22'2 1.1
2015-Jun-27 10:33N 47°35' W 122°25'  
2015-Jun-22 18:13N 47°36' W 122°21'5 0.1
2015-Jun-20 22:33N 47°37' W 122°28'5 3.8
2015-Jun-20 21:17N 47°35' W 122°22'3 4.0
2015-Jun-20 20:33N 47°37' W 122°22'1 0.8
2015-Jun-20 19:31N 47°38' W 122°23'3 3.0
2015-Jun-20 18:33N 47°35' W 122°22'1 0.0
2015-Jun-19 08:33N 47°36' W 122°20'0 0.0
2015-Jun-19 07:33N 47°36' W 122°20'1 0.0
2015-Jun-18 15:33N 47°36' W 122°21'1 1.5
2015-Jun-18 14:33N 47°34' W 122°21'2 1.8
2015-Jun-18 13:33N 47°36' W 122°22'1 1.3
2015-Jun-18 12:33N 47°34' W 122°21'1 0.3
2015-Jun-18 08:08N 47°36' W 122°22'2 3.2
2015-Jun-18 07:32N 47°37' W 122°24'3 2.7
2015-Jun-18 06:30N 47°35' W 122°22'3 0.4
2015-Jun-17 23:33N 47°37' W 122°24'1 0.9
2015-Jun-17 22:33N 47°37' W 122°23'4 3.3
2015-Jun-17 21:15N 47°33' W 122°20'5 7.7
2015-Jun-17 20:33N 47°38' W 122°23'0 0.1
2015-Jun-17 19:33N 47°38' W 122°23'3 2.5
2015-Jun-17 18:33N 47°35' W 122°22'  
Track history (hours):
 
Tides and Currents Weather Stations Pressure Air Temp Water Temp Dewpoint Dewpoint Depression Visibility Wind Speed Wind Dir Waves Ship Positions

Swift Arrow

Owner: ARROW LAUNCH SERVICE INC, Port Angeles, WA. More information available from US FCC via Universal Licensing System and Coast Guard Vessel Documentation Center.

Last reported at 2015-Jun-27 13:26 UTC. Time now 2015-Jul-02 18:14 UTC.
Position N 47°36' W 122°21'.

Type: Port tender. MMSI: 369021000.

Date/timePositionNaut miles runAvg speedWind from/ knotsBaromVisibWave heightAir tempDewpointWater temp
2015-Jun-27 13:26N 47°36' W 122°21'1 0.9
2015-Jun-27 12:30N 47°36' W 122°22'2 1.1
2015-Jun-27 10:33N 47°35' W 122°25'  
2015-Jun-22 18:13N 47°36' W 122°21'5 0.1
2015-Jun-20 22:33N 47°37' W 122°28'5 3.8
2015-Jun-20 21:17N 47°35' W 122°22'3 4.0
2015-Jun-20 20:33N 47°37' W 122°22'1 0.8
2015-Jun-20 19:31N 47°38' W 122°23'3 3.0
2015-Jun-20 18:33N 47°35' W 122°22'1 0.0
2015-Jun-19 08:33N 47°36' W 122°20'0 0.0
2015-Jun-19 07:33N 47°36' W 122°20'1 0.0
2015-Jun-18 15:33N 47°36' W 122°21'1 1.5
2015-Jun-18 14:33N 47°34' W 122°21'2 1.8
2015-Jun-18 13:33N 47°36' W 122°22'1 1.3
2015-Jun-18 12:33N 47°34' W 122°21'1 0.3
2015-Jun-18 08:08N 47°36' W 122°22'2 3.2
2015-Jun-18 07:32N 47°37' W 122°24'3 2.7
2015-Jun-18 06:30N 47°35' W 122°22'3 0.4
2015-Jun-17 23:33N 47°37' W 122°24'1 0.9
2015-Jun-17 22:33N 47°37' W 122°23'4 3.3
2015-Jun-17 21:15N 47°33' W 122°20'5 7.7
2015-Jun-17 20:33N 47°38' W 122°23'0 0.1
2015-Jun-17 19:33N 47°38' W 122°23'3 2.5
2015-Jun-17 18:33N 47°35' W 122°22'  

Dump ship's entire track history